Spencer, Idaho
Current Conditions -  °F | °C
As of 10:53 PM on Monday 20 Oct 2014 (Local Time) from KRXE Reporting Station
Clear Clear  
Wind Chill: 60°   Ceiling: Unl
Heat Index: 60°   Visibility: 10mi
Dew Point: 32°   Wind: 8mph
Humidity: 35%   Direction: 180°S
Pressure: 29.89"   Gusts: NA
Location:  44.36°N, 112.19°W
Report Text: KRXE 210453Z AUTO 18007KT 10SM CLR 16/00 A2989 RMK AO2 SLP096 T01560000
Loading
Personal Weather Stations






























Interactive Weather Map
Tropical Storm Tracking
New forecast layout! Learn more

10-Day Weather Forecast

Advertisements
Track Severe Weather on mobile